sensor_id;sensor_type;location;lat;lon;timestamp;pressure;altitude;pressure_sealevel;temperature;humidity
67740;BME280;54536;50.090;14.420;2023-03-25T00:01:34;98550.88;;;14.40;53.12
67740;BME280;54536;50.090;14.420;2023-03-25T00:04:03;98556.25;;;14.32;53.24
67740;BME280;54536;50.090;14.420;2023-03-25T00:06:30;98541.13;;;14.40;53.18
67740;BME280;54536;50.090;14.420;2023-03-25T00:09:00;98543.41;;;14.43;53.34
67740;BME280;54536;50.090;14.420;2023-03-25T00:11:27;98540.00;;;14.35;53.15
67740;BME280;54536;50.090;14.420;2023-03-25T00:13:54;98538.63;;;14.24;53.96
67740;BME280;54536;50.090;14.420;2023-03-25T00:16:20;98533.63;;;14.14;53.83
67740;BME280;54536;50.090;14.420;2023-03-25T00:18:46;98538.25;;;14.12;54.36
67740;BME280;54536;50.090;14.420;2023-03-25T00:21:13;98533.97;;;14.11;53.62
67740;BME280;54536;50.090;14.420;2023-03-25T00:23:40;98536.06;;;14.16;53.95
67740;BME280;54536;50.090;14.420;2023-03-25T00:26:07;98534.88;;;14.18;54.02
67740;BME280;54536;50.090;14.420;2023-03-25T00:28:35;98537.44;;;14.12;54.54
67740;BME280;54536;50.090;14.420;2023-03-25T00:31:10;98528.53;;;14.13;54.25
67740;BME280;54536;50.090;14.420;2023-03-25T00:33:36;98528.88;;;14.10;54.31
67740;BME280;54536;50.090;14.420;2023-03-25T00:36:03;98525.78;;;13.83;54.52
67740;BME280;54536;50.090;14.420;2023-03-25T00:38:31;98532.38;;;13.87;54.98
67740;BME280;54536;50.090;14.420;2023-03-25T00:43:43;98528.81;;;13.80;54.83
67740;BME280;54536;50.090;14.420;2023-03-25T00:46:10;98526.81;;;13.82;54.88
67740;BME280;54536;50.090;14.420;2023-03-25T00:48:36;98540.91;;;13.74;55.30
67740;BME280;54536;50.090;14.420;2023-03-25T00:51:03;98528.63;;;13.81;55.60
67740;BME280;54536;50.090;14.420;2023-03-25T00:53:33;98527.81;;;13.81;55.45
67740;BME280;54536;50.090;14.420;2023-03-25T00:56:00;98518.97;;;13.89;55.07
67740;BME280;54536;50.090;14.420;2023-03-25T00:58:27;98527.50;;;13.76;55.25
67740;BME280;54536;50.090;14.420;2023-03-25T01:00:54;98524.50;;;13.79;55.16
67740;BME280;54536;50.090;14.420;2023-03-25T01:03:25;98516.31;;;13.74;55.58
67740;BME280;54536;50.090;14.420;2023-03-25T01:05:54;98531.88;;;13.69;55.51
67740;BME280;54536;50.090;14.420;2023-03-25T01:08:21;98533.50;;;13.70;54.96
67740;BME280;54536;50.090;14.420;2023-03-25T01:10:55;98524.25;;;13.74;54.87
67740;BME280;54536;50.090;14.420;2023-03-25T01:13:22;98518.59;;;13.77;55.21
67740;BME280;54536;50.090;14.420;2023-03-25T01:15:48;98521.41;;;13.75;55.57
67740;BME280;54536;50.090;14.420;2023-03-25T01:18:15;98529.81;;;13.56;55.19
67740;BME280;54536;50.090;14.420;2023-03-25T01:20:42;98544.25;;;13.68;55.50
67740;BME280;54536;50.090;14.420;2023-03-25T01:23:08;98532.75;;;13.61;55.85
67740;BME280;54536;50.090;14.420;2023-03-25T01:25:36;98537.47;;;13.51;55.63
67740;BME280;54536;50.090;14.420;2023-03-25T01:28:03;98540.91;;;13.51;56.23
67740;BME280;54536;50.090;14.420;2023-03-25T01:30:31;98537.16;;;13.46;56.61
67740;BME280;54536;50.090;14.420;2023-03-25T01:32:57;98544.13;;;13.39;56.13
67740;BME280;54536;50.090;14.420;2023-03-25T01:35:24;98533.81;;;13.52;55.95
67740;BME280;54536;50.090;14.420;2023-03-25T01:37:50;98533.75;;;13.60;55.85
67740;BME280;54536;50.090;14.420;2023-03-25T01:40:21;98531.59;;;13.64;56.22
67740;BME280;54536;50.090;14.420;2023-03-25T01:42:49;98532.66;;;13.54;55.82
67740;BME280;54536;50.090;14.420;2023-03-25T01:45:23;98525.66;;;13.62;55.76
67740;BME280;54536;50.090;14.420;2023-03-25T01:47:57;98530.00;;;13.54;55.80
67740;BME280;54536;50.090;14.420;2023-03-25T01:50:28;98525.34;;;13.56;55.54
67740;BME280;54536;50.090;14.420;2023-03-25T01:53:00;98526.34;;;13.55;55.91
67740;BME280;54536;50.090;14.420;2023-03-25T01:55:30;98523.38;;;13.58;55.59
67740;BME280;54536;50.090;14.420;2023-03-25T01:58:02;98522.31;;;13.45;56.07
67740;BME280;54536;50.090;14.420;2023-03-25T02:00:30;98523.59;;;13.49;56.68
67740;BME280;54536;50.090;14.420;2023-03-25T02:02:58;98521.72;;;13.34;56.69
67740;BME280;54536;50.090;14.420;2023-03-25T02:05:49;98523.59;;;13.26;56.92
67740;BME280;54536;50.090;14.420;2023-03-25T02:08:19;98524.59;;;13.25;56.69
67740;BME280;54536;50.090;14.420;2023-03-25T02:10:47;98526.69;;;13.29;57.14
67740;BME280;54536;50.090;14.420;2023-03-25T02:13:15;98519.03;;;13.43;56.97
67740;BME280;54536;50.090;14.420;2023-03-25T02:18:40;98523.06;;;13.30;56.82
67740;BME280;54536;50.090;14.420;2023-03-25T02:29:26;98518.25;;;13.34;57.40
67740;BME280;54536;50.090;14.420;2023-03-25T02:32:17;98523.59;;;13.26;56.99
67740;BME280;54536;50.090;14.420;2023-03-25T02:43:32;98517.97;;;13.29;57.53
67740;BME280;54536;50.090;14.420;2023-03-25T02:46:06;98516.72;;;13.40;57.17
67740;BME280;54536;50.090;14.420;2023-03-25T02:49:01;98518.09;;;13.35;56.97
67740;BME280;54536;50.090;14.420;2023-03-25T02:51:42;98519.25;;;13.33;57.23
67740;BME280;54536;50.090;14.420;2023-03-25T02:54:14;98508.41;;;13.28;58.51
67740;BME280;54536;50.090;14.420;2023-03-25T02:56:42;98496.03;;;13.28;58.26
67740;BME280;54536;50.090;14.420;2023-03-25T02:59:13;98498.81;;;13.27;58.16
67740;BME280;54536;50.090;14.420;2023-03-25T03:01:40;98495.31;;;13.34;58.53
67740;BME280;54536;50.090;14.420;2023-03-25T03:04:06;98491.59;;;13.44;58.63
67740;BME280;54536;50.090;14.420;2023-03-25T03:06:39;98486.69;;;13.41;58.65
67740;BME280;54536;50.090;14.420;2023-03-25T03:09:20;98487.91;;;13.30;58.98
67740;BME280;54536;50.090;14.420;2023-03-25T03:12:20;98476.31;;;13.39;58.57
67740;BME280;54536;50.090;14.420;2023-03-25T03:18:04;98485.34;;;13.45;58.27
67740;BME280;54536;50.090;14.420;2023-03-25T03:20:36;98487.41;;;13.34;58.55
67740;BME280;54536;50.090;14.420;2023-03-25T03:23:14;98484.94;;;13.33;58.12
67740;BME280;54536;50.090;14.420;2023-03-25T03:26:00;98494.47;;;13.34;58.13
67740;BME280;54536;50.090;14.420;2023-03-25T03:31:14;98494.00;;;13.30;58.03
67740;BME280;54536;50.090;14.420;2023-03-25T03:33:55;98490.03;;;13.34;56.79
67740;BME280;54536;50.090;14.420;2023-03-25T03:36:28;98488.00;;;13.13;56.87
67740;BME280;54536;50.090;14.420;2023-03-25T03:39:16;98486.00;;;13.16;56.85
67740;BME280;54536;50.090;14.420;2023-03-25T03:41:51;98490.50;;;13.07;56.20
67740;BME280;54536;50.090;14.420;2023-03-25T03:44:26;98495.72;;;12.92;56.22
67740;BME280;54536;50.090;14.420;2023-03-25T03:47:00;98498.38;;;12.92;56.53
67740;BME280;54536;50.090;14.420;2023-03-25T03:49:52;98492.69;;;13.03;56.05
67740;BME280;54536;50.090;14.420;2023-03-25T03:52:45;98491.66;;;13.04;55.20
67740;BME280;54536;50.090;14.420;2023-03-25T03:55:22;98493.50;;;13.04;54.95
67740;BME280;54536;50.090;14.420;2023-03-25T03:58:10;98496.81;;;12.98;54.74
67740;BME280;54536;50.090;14.420;2023-03-25T04:00:49;98498.84;;;12.96;54.94
67740;BME280;54536;50.090;14.420;2023-03-25T04:03:18;98507.13;;;12.84;55.57
67740;BME280;54536;50.090;14.420;2023-03-25T04:05:58;98499.69;;;12.88;55.49
67740;BME280;54536;50.090;14.420;2023-03-25T04:08:32;98495.66;;;12.69;55.97
67740;BME280;54536;50.090;14.420;2023-03-25T04:11:09;98494.63;;;12.78;55.67
67740;BME280;54536;50.090;14.420;2023-03-25T04:13:41;98492.19;;;12.69;55.30
67740;BME280;54536;50.090;14.420;2023-03-25T04:16:10;98495.00;;;12.75;55.44
67740;BME280;54536;50.090;14.420;2023-03-25T04:18:36;98499.22;;;12.84;55.31
67740;BME280;54536;50.090;14.420;2023-03-25T04:21:02;98497.84;;;12.65;55.18
67740;BME280;54536;50.090;14.420;2023-03-25T04:23:28;98492.50;;;12.74;54.63
67740;BME280;54536;50.090;14.420;2023-03-25T04:25:59;98490.53;;;12.76;54.97
67740;BME280;54536;50.090;14.420;2023-03-25T04:28:28;98485.03;;;12.85;54.79
67740;BME280;54536;50.090;14.420;2023-03-25T04:30:54;98473.81;;;12.83;54.81
67740;BME280;54536;50.090;14.420;2023-03-25T04:33:21;98468.88;;;12.88;55.26
67740;BME280;54536;50.090;14.420;2023-03-25T04:35:47;98478.44;;;12.81;54.86
67740;BME280;54536;50.090;14.420;2023-03-25T04:38:17;98490.13;;;12.87;55.05
67740;BME280;54536;50.090;14.420;2023-03-25T04:40:44;98486.06;;;12.76;55.06
67740;BME280;54536;50.090;14.420;2023-03-25T04:43:15;98498.47;;;12.68;54.79
67740;BME280;54536;50.090;14.420;2023-03-25T04:45:42;98489.75;;;12.67;54.82
67740;BME280;54536;50.090;14.420;2023-03-25T04:48:24;98499.41;;;12.83;55.30
67740;BME280;54536;50.090;14.420;2023-03-25T04:50:56;98502.03;;;12.83;54.41
67740;BME280;54536;50.090;14.420;2023-03-25T04:53:25;98516.69;;;12.85;54.99
67740;BME280;54536;50.090;14.420;2023-03-25T04:55:54;98512.59;;;12.83;55.05
67740;BME280;54536;50.090;14.420;2023-03-25T04:58:21;98523.19;;;13.06;53.91
67740;BME280;54536;50.090;14.420;2023-03-25T05:00:50;98518.47;;;12.93;54.49
67740;BME280;54536;50.090;14.420;2023-03-25T05:03:19;98523.22;;;12.67;55.08
67740;BME280;54536;50.090;14.420;2023-03-25T05:05:50;98535.19;;;12.77;55.00
67740;BME280;54536;50.090;14.420;2023-03-25T05:08:17;98518.00;;;12.89;54.97
67740;BME280;54536;50.090;14.420;2023-03-25T05:10:43;98530.03;;;12.92;55.10
67740;BME280;54536;50.090;14.420;2023-03-25T05:13:09;98524.88;;;12.99;54.89
67740;BME280;54536;50.090;14.420;2023-03-25T05:15:36;98521.63;;;12.88;54.47
67740;BME280;54536;50.090;14.420;2023-03-25T05:18:08;98531.88;;;12.83;54.34
67740;BME280;54536;50.090;14.420;2023-03-25T05:20:36;98527.13;;;12.79;54.16
67740;BME280;54536;50.090;14.420;2023-03-25T05:23:10;98528.75;;;12.80;54.30
67740;BME280;54536;50.090;14.420;2023-03-25T05:25:41;98532.41;;;12.71;54.98
67740;BME280;54536;50.090;14.420;2023-03-25T05:28:08;98532.59;;;12.69;55.17
67740;BME280;54536;50.090;14.420;2023-03-25T05:30:39;98536.47;;;12.81;55.30
67740;BME280;54536;50.090;14.420;2023-03-25T05:33:12;98533.72;;;12.75;54.95
67740;BME280;54536;50.090;14.420;2023-03-25T05:35:40;98538.78;;;12.84;55.11
67740;BME280;54536;50.090;14.420;2023-03-25T05:38:08;98537.69;;;12.79;54.70
67740;BME280;54536;50.090;14.420;2023-03-25T05:40:37;98546.56;;;12.78;55.15
67740;BME280;54536;50.090;14.420;2023-03-25T05:43:04;98546.88;;;12.83;55.02
67740;BME280;54536;50.090;14.420;2023-03-25T05:45:32;98530.59;;;12.71;55.04
67740;BME280;54536;50.090;14.420;2023-03-25T05:48:02;98532.59;;;12.69;54.78
67740;BME280;54536;50.090;14.420;2023-03-25T05:50:28;98539.00;;;12.75;54.47
67740;BME280;54536;50.090;14.420;2023-03-25T05:52:54;98536.47;;;12.89;53.98
67740;BME280;54536;50.090;14.420;2023-03-25T05:55:22;98541.59;;;12.83;54.55
67740;BME280;54536;50.090;14.420;2023-03-25T05:57:48;98542.41;;;12.83;54.39
67740;BME280;54536;50.090;14.420;2023-03-25T06:00:16;98541.56;;;12.91;53.34
67740;BME280;54536;50.090;14.420;2023-03-25T06:02:47;98539.38;;;12.95;53.65
67740;BME280;54536;50.090;14.420;2023-03-25T06:05:15;98552.38;;;13.04;53.10
67740;BME280;54536;50.090;14.420;2023-03-25T06:07:44;98553.31;;;12.80;52.93
67740;BME280;54536;50.090;14.420;2023-03-25T06:10:13;98551.06;;;13.08;52.42
67740;BME280;54536;50.090;14.420;2023-03-25T06:12:46;98554.31;;;13.10;51.80
67740;BME280;54536;50.090;14.420;2023-03-25T06:15:14;98548.16;;;12.95;51.90
67740;BME280;54536;50.090;14.420;2023-03-25T06:17:43;98546.50;;;12.94;52.52
67740;BME280;54536;50.090;14.420;2023-03-25T06:20:13;98549.53;;;12.75;52.61
67740;BME280;54536;50.090;14.420;2023-03-25T06:22:43;98551.03;;;12.77;52.37
67740;BME280;54536;50.090;14.420;2023-03-25T06:25:15;98554.59;;;12.84;51.77
67740;BME280;54536;50.090;14.420;2023-03-25T06:27:42;98554.13;;;12.89;51.92
67740;BME280;54536;50.090;14.420;2023-03-25T06:30:11;98549.31;;;12.93;51.79
67740;BME280;54536;50.090;14.420;2023-03-25T06:32:38;98554.06;;;12.97;51.29
67740;BME280;54536;50.090;14.420;2023-03-25T06:35:07;98561.47;;;13.02;51.24
67740;BME280;54536;50.090;14.420;2023-03-25T06:37:36;98556.06;;;12.95;51.14
67740;BME280;54536;50.090;14.420;2023-03-25T06:40:02;98563.94;;;13.03;50.66
67740;BME280;54536;50.090;14.420;2023-03-25T06:42:30;98546.19;;;12.89;51.21
67740;BME280;54536;50.090;14.420;2023-03-25T06:44:57;98559.22;;;12.91;50.36
67740;BME280;54536;50.090;14.420;2023-03-25T06:47:24;98551.94;;;12.93;50.76
67740;BME280;54536;50.090;14.420;2023-03-25T06:49:50;98560.81;;;13.00;49.80
67740;BME280;54536;50.090;14.420;2023-03-25T06:52:16;98572.19;;;13.00;50.24
67740;BME280;54536;50.090;14.420;2023-03-25T06:54:42;98560.06;;;13.14;50.06
67740;BME280;54536;50.090;14.420;2023-03-25T06:57:08;98560.41;;;13.19;49.50
67740;BME280;54536;50.090;14.420;2023-03-25T06:59:34;98561.28;;;13.11;49.08
67740;BME280;54536;50.090;14.420;2023-03-25T07:02:01;98563.31;;;13.32;49.00
67740;BME280;54536;50.090;14.420;2023-03-25T07:04:27;98565.63;;;13.35;48.38
67740;BME280;54536;50.090;14.420;2023-03-25T07:06:53;98564.69;;;13.51;47.95
67740;BME280;54536;50.090;14.420;2023-03-25T07:09:19;98567.72;;;13.63;48.13
67740;BME280;54536;50.090;14.420;2023-03-25T07:11:45;98581.78;;;13.64;47.36
67740;BME280;54536;50.090;14.420;2023-03-25T07:14:17;98582.00;;;13.54;47.11
67740;BME280;54536;50.090;14.420;2023-03-25T07:16:44;98581.50;;;13.50;47.60
67740;BME280;54536;50.090;14.420;2023-03-25T07:19:10;98587.06;;;13.64;46.78
67740;BME280;54536;50.090;14.420;2023-03-25T07:21:37;98595.84;;;13.79;46.80
67740;BME280;54536;50.090;14.420;2023-03-25T07:24:03;98585.72;;;13.68;47.25
67740;BME280;54536;50.090;14.420;2023-03-25T07:26:36;98582.88;;;13.69;47.15
67740;BME280;54536;50.090;14.420;2023-03-25T07:29:08;98571.44;;;13.54;46.97
67740;BME280;54536;50.090;14.420;2023-03-25T07:31:48;98571.34;;;13.70;47.02
67740;BME280;54536;50.090;14.420;2023-03-25T07:34:13;98564.38;;;13.69;46.76
67740;BME280;54536;50.090;14.420;2023-03-25T07:36:40;98569.84;;;13.91;47.00
67740;BME280;54536;50.090;14.420;2023-03-25T07:39:06;98565.84;;;13.95;45.88
67740;BME280;54536;50.090;14.420;2023-03-25T07:41:39;98576.03;;;14.21;45.29
67740;BME280;54536;50.090;14.420;2023-03-25T07:44:05;98578.25;;;14.09;45.19
67740;BME280;54536;50.090;14.420;2023-03-25T07:46:37;98592.03;;;14.04;45.52
67740;BME280;54536;50.090;14.420;2023-03-25T07:49:06;98597.38;;;14.19;46.09
67740;BME280;54536;50.090;14.420;2023-03-25T07:51:32;98594.88;;;14.18;45.27
67740;BME280;54536;50.090;14.420;2023-03-25T07:54:00;98594.22;;;14.01;46.33
67740;BME280;54536;50.090;14.420;2023-03-25T07:56:26;98601.19;;;14.17;46.60
67740;BME280;54536;50.090;14.420;2023-03-25T07:58:52;98602.56;;;14.13;46.67
67740;BME280;54536;50.090;14.420;2023-03-25T08:01:19;98617.56;;;14.12;46.14
67740;BME280;54536;50.090;14.420;2023-03-25T08:03:45;98626.25;;;14.21;46.65
67740;BME280;54536;50.090;14.420;2023-03-25T08:06:11;98614.34;;;14.02;47.36
67740;BME280;54536;50.090;14.420;2023-03-25T08:08:38;98619.28;;;13.82;49.21
67740;BME280;54536;50.090;14.420;2023-03-25T08:11:04;98603.53;;;13.66;49.55
67740;BME280;54536;50.090;14.420;2023-03-25T08:13:31;98607.28;;;13.48;48.86
67740;BME280;54536;50.090;14.420;2023-03-25T08:15:57;98618.88;;;13.47;49.60
67740;BME280;54536;50.090;14.420;2023-03-25T08:18:24;98610.09;;;13.47;50.31
67740;BME280;54536;50.090;14.420;2023-03-25T08:20:51;98602.06;;;13.63;49.71
67740;BME280;54536;50.090;14.420;2023-03-25T08:23:19;98596.50;;;13.81;50.18
67740;BME280;54536;50.090;14.420;2023-03-25T08:25:49;98600.19;;;13.95;49.65
67740;BME280;54536;50.090;14.420;2023-03-25T08:28:20;98591.59;;;14.16;49.62
67740;BME280;54536;50.090;14.420;2023-03-25T08:30:51;98585.97;;;13.96;49.98
67740;BME280;54536;50.090;14.420;2023-03-25T08:33:32;98583.88;;;14.29;48.99
67740;BME280;54536;50.090;14.420;2023-03-25T08:36:00;98576.28;;;14.11;47.34
67740;BME280;54536;50.090;14.420;2023-03-25T08:38:35;98585.06;;;14.26;46.82
67740;BME280;54536;50.090;14.420;2023-03-25T08:41:02;98587.47;;;14.51;46.54
67740;BME280;54536;50.090;14.420;2023-03-25T08:43:28;98590.81;;;14.45;45.32
67740;BME280;54536;50.090;14.420;2023-03-25T08:45:54;98595.88;;;14.55;45.45
67740;BME280;54536;50.090;14.420;2023-03-25T08:48:20;98605.94;;;14.59;44.22
67740;BME280;54536;50.090;14.420;2023-03-25T08:50:47;98598.50;;;14.40;44.95
67740;BME280;54536;50.090;14.420;2023-03-25T08:53:13;98614.31;;;14.25;45.23
67740;BME280;54536;50.090;14.420;2023-03-25T08:55:40;98620.06;;;13.68;49.87
67740;BME280;54536;50.090;14.420;2023-03-25T08:58:06;98651.88;;;13.43;52.17
67740;BME280;54536;50.090;14.420;2023-03-25T09:00:34;98637.78;;;13.28;56.70
67740;BME280;54536;50.090;14.420;2023-03-25T09:03:04;98626.69;;;13.32;54.07
67740;BME280;54536;50.090;14.420;2023-03-25T09:05:30;98623.75;;;13.58;53.99
67740;BME280;54536;50.090;14.420;2023-03-25T09:07:56;98625.84;;;13.63;54.06
67740;BME280;54536;50.090;14.420;2023-03-25T09:10:22;98620.56;;;13.63;54.24
67740;BME280;54536;50.090;14.420;2023-03-25T09:12:48;98620.84;;;13.45;52.69
67740;BME280;54536;50.090;14.420;2023-03-25T09:15:14;98605.38;;;13.65;51.65
67740;BME280;54536;50.090;14.420;2023-03-25T09:17:41;98614.69;;;13.76;50.78
67740;BME280;54536;50.090;14.420;2023-03-25T09:20:07;98609.41;;;13.76;48.84
67740;BME280;54536;50.090;14.420;2023-03-25T09:22:35;98613.50;;;13.64;46.63
67740;BME280;54536;50.090;14.420;2023-03-25T09:25:02;98605.16;;;13.75;45.75
67740;BME280;54536;50.090;14.420;2023-03-25T09:27:29;98614.88;;;13.97;45.76
67740;BME280;54536;50.090;14.420;2023-03-25T09:29:55;98623.28;;;14.01;43.80
67740;BME280;54536;50.090;14.420;2023-03-25T09:32:21;98610.88;;;14.01;44.03
67740;BME280;54536;50.090;14.420;2023-03-25T09:34:47;98628.56;;;14.24;43.29
67740;BME280;54536;50.090;14.420;2023-03-25T09:37:13;98621.22;;;14.11;44.56
67740;BME280;54536;50.090;14.420;2023-03-25T09:39:39;98621.84;;;14.36;44.59
67740;BME280;54536;50.090;14.420;2023-03-25T09:47:24;98630.94;;;14.34;44.53
67740;BME280;54536;50.090;14.420;2023-03-25T09:49:56;98627.56;;;14.63;44.31
67740;BME280;54536;50.090;14.420;2023-03-25T09:52:32;98621.72;;;14.67;44.92
67740;BME280;54536;50.090;14.420;2023-03-25T09:55:10;98618.34;;;14.59;43.10
67740;BME280;54536;50.090;14.420;2023-03-25T09:57:46;98602.47;;;14.88;43.18
67740;BME280;54536;50.090;14.420;2023-03-25T10:00:21;98602.81;;;15.00;42.19
67740;BME280;54536;50.090;14.420;2023-03-25T10:06:10;98606.00;;;15.10;41.95
67740;BME280;54536;50.090;14.420;2023-03-25T10:22:17;98598.50;;;15.14;40.52
67740;BME280;54536;50.090;14.420;2023-03-25T10:24:49;98602.91;;;15.21;40.99
67740;BME280;54536;50.090;14.420;2023-03-25T10:27:39;98593.03;;;15.01;40.54
67740;BME280;54536;50.090;14.420;2023-03-25T10:30:20;98599.25;;;14.93;41.12
67740;BME280;54536;50.090;14.420;2023-03-25T10:32:58;98613.41;;;15.00;40.52
67740;BME280;54536;50.090;14.420;2023-03-25T10:35:29;98599.94;;;15.31;41.22
67740;BME280;54536;50.090;14.420;2023-03-25T10:38:03;98593.75;;;15.60;40.27
67740;BME280;54536;50.090;14.420;2023-03-25T10:40:38;98600.78;;;15.68;40.10
67740;BME280;54536;50.090;14.420;2023-03-25T10:47:03;98587.16;;;15.20;40.08
67740;BME280;54536;50.090;14.420;2023-03-25T10:48:56;98580.59;;;15.16;40.50
67740;BME280;54536;50.090;14.420;2023-03-25T10:51:29;98583.63;;;15.13;40.54
67740;BME280;54536;50.090;14.420;2023-03-25T10:53:57;98590.22;;;14.87;40.76
67740;BME280;54536;50.090;14.420;2023-03-25T10:56:29;98597.91;;;14.82;41.16
67740;BME280;54536;50.090;14.420;2023-03-25T10:59:01;98597.28;;;14.95;40.47
67740;BME280;54536;50.090;14.420;2023-03-25T11:01:39;98584.00;;;15.10;40.74
67740;BME280;54536;50.090;14.420;2023-03-25T11:04:09;98578.09;;;15.44;40.46
67740;BME280;54536;50.090;14.420;2023-03-25T11:06:40;98571.94;;;15.07;40.48
67740;BME280;54536;50.090;14.420;2023-03-25T11:09:28;98572.66;;;15.16;41.08
67740;BME280;54536;50.090;14.420;2023-03-25T11:11:59;98561.91;;;15.17;40.63
67740;BME280;54536;50.090;14.420;2023-03-25T11:14:28;98551.03;;;15.49;39.90
67740;BME280;54536;50.090;14.420;2023-03-25T11:16:59;98570.50;;;15.41;39.88
67740;BME280;54536;50.090;14.420;2023-03-25T11:19:40;98547.41;;;15.35;39.23
67740;BME280;54536;50.090;14.420;2023-03-25T11:22:19;98546.38;;;15.51;39.29
67740;BME280;54536;50.090;14.420;2023-03-25T11:24:50;98544.94;;;15.70;39.08
67740;BME280;54536;50.090;14.420;2023-03-25T11:27:27;98540.84;;;15.52;38.27
67740;BME280;54536;50.090;14.420;2023-03-25T11:30:06;98537.97;;;15.68;37.35
67740;BME280;54536;50.090;14.420;2023-03-25T11:32:40;98529.94;;;16.33;36.92
67740;BME280;54536;50.090;14.420;2023-03-25T11:35:23;98509.44;;;15.92;36.42
67740;BME280;54536;50.090;14.420;2023-03-25T11:37:56;98520.03;;;16.20;36.21
67740;BME280;54536;50.090;14.420;2023-03-25T11:40:23;98516.97;;;16.51;36.00
67740;BME280;54536;50.090;14.420;2023-03-25T11:42:55;98511.09;;;16.97;35.60
67740;BME280;54536;50.090;14.420;2023-03-25T11:45:33;98520.34;;;17.21;34.79
67740;BME280;54536;50.090;14.420;2023-03-25T11:48:14;98522.94;;;18.02;34.05
67740;BME280;54536;50.090;14.420;2023-03-25T11:51:14;98519.19;;;17.50;34.44
67740;BME280;54536;50.090;14.420;2023-03-25T11:53:53;98514.13;;;18.02;33.56
67740;BME280;54536;50.090;14.420;2023-03-25T11:56:25;98513.50;;;17.80;33.74
67740;BME280;54536;50.090;14.420;2023-03-25T11:58:58;98499.09;;;17.28;34.07
67740;BME280;54536;50.090;14.420;2023-03-25T12:01:35;98511.13;;;17.11;34.41
67740;BME280;54536;50.090;14.420;2023-03-25T12:04:23;98516.03;;;17.07;35.68
67740;BME280;54536;50.090;14.420;2023-03-25T12:07:01;98522.03;;;17.49;35.10
67740;BME280;54536;50.090;14.420;2023-03-25T12:09:31;98518.50;;;17.15;35.71
67740;BME280;54536;50.090;14.420;2023-03-25T12:20:36;98503.16;;;16.62;35.10
67740;BME280;54536;50.090;14.420;2023-03-25T12:23:40;98506.16;;;16.18;36.35
67740;BME280;54536;50.090;14.420;2023-03-25T12:26:28;98502.41;;;16.41;36.92
67740;BME280;54536;50.090;14.420;2023-03-25T12:37:04;98480.94;;;18.18;33.00
67740;BME280;54536;50.090;14.420;2023-03-25T12:45:28;98466.28;;;21.34;27.74
67740;BME280;54536;50.090;14.420;2023-03-25T12:55:56;98457.00;;;19.21;29.09
67740;BME280;54536;50.090;14.420;2023-03-25T13:04:33;98469.53;;;17.84;32.39
67740;BME280;54536;50.090;14.420;2023-03-25T13:12:49;98461.44;;;20.09;31.24
67740;BME280;54536;50.090;14.420;2023-03-25T13:15:35;98449.72;;;21.44;28.28
67740;BME280;54536;50.090;14.420;2023-03-25T13:21:09;98440.78;;;23.13;25.28
67740;BME280;54536;50.090;14.420;2023-03-25T13:23:38;98433.84;;;23.46;24.64
67740;BME280;54536;50.090;14.420;2023-03-25T13:26:08;98430.66;;;23.32;24.45
67740;BME280;54536;50.090;14.420;2023-03-25T13:28:46;98429.91;;;23.36;24.33
67740;BME280;54536;50.090;14.420;2023-03-25T13:31:18;98419.41;;;22.61;26.73
67740;BME280;54536;50.090;14.420;2023-03-25T13:33:52;98419.72;;;21.42;27.05
67740;BME280;54536;50.090;14.420;2023-03-25T13:38:58;98419.09;;;20.49;29.71
67740;BME280;54536;50.090;14.420;2023-03-25T13:41:47;98419.25;;;19.99;30.21
67740;BME280;54536;50.090;14.420;2023-03-25T13:44:42;98434.97;;;19.57;30.24
67740;BME280;54536;50.090;14.420;2023-03-25T13:47:22;98424.78;;;19.23;31.41
67740;BME280;54536;50.090;14.420;2023-03-25T13:50:04;98419.16;;;19.06;31.11
67740;BME280;54536;50.090;14.420;2023-03-25T13:52:38;98413.13;;;18.85;31.06
67740;BME280;54536;50.090;14.420;2023-03-25T13:55:19;98416.03;;;18.25;31.16
67740;BME280;54536;50.090;14.420;2023-03-25T13:58:35;98422.81;;;18.21;31.35
67740;BME280;54536;50.090;14.420;2023-03-25T14:09:10;98413.91;;;17.83;32.25
67740;BME280;54536;50.090;14.420;2023-03-25T14:14:49;98420.22;;;17.48;31.14
67740;BME280;54536;50.090;14.420;2023-03-25T14:17:21;98418.59;;;17.47;31.60
67740;BME280;54536;50.090;14.420;2023-03-25T14:19:51;98421.03;;;17.36;31.75
67740;BME280;54536;50.090;14.420;2023-03-25T14:22:27;98428.97;;;17.16;31.81
67740;BME280;54536;50.090;14.420;2023-03-25T14:24:55;98429.63;;;17.24;31.84
67740;BME280;54536;50.090;14.420;2023-03-25T14:32:37;98430.13;;;16.80;32.79
67740;BME280;54536;50.090;14.420;2023-03-25T14:43:22;98428.69;;;16.77;33.87
67740;BME280;54536;50.090;14.420;2023-03-25T14:48:51;98490.06;;;15.91;37.66
67740;BME280;54536;50.090;14.420;2023-03-25T14:53:59;98515.50;;;14.85;49.61
67740;BME280;54536;50.090;14.420;2023-03-25T14:57:00;98506.72;;;14.40;49.14
67740;BME280;54536;50.090;14.420;2023-03-25T14:59:41;98514.66;;;14.40;49.71
67740;BME280;54536;50.090;14.420;2023-03-25T15:02:29;98508.72;;;14.38;47.69
67740;BME280;54536;50.090;14.420;2023-03-25T15:05:22;98502.38;;;14.33;46.85
67740;BME280;54536;50.090;14.420;2023-03-25T15:08:19;98506.63;;;14.48;47.11
67740;BME280;54536;50.090;14.420;2023-03-25T15:10:49;98511.22;;;14.55;46.09
67740;BME280;54536;50.090;14.420;2023-03-25T15:13:33;98514.22;;;14.51;46.82
67740;BME280;54536;50.090;14.420;2023-03-25T15:16:55;98517.22;;;14.48;45.31
67740;BME280;54536;50.090;14.420;2023-03-25T15:21:23;98521.41;;;14.13;43.27
67740;BME280;54536;50.090;14.420;2023-03-25T15:24:03;98496.16;;;14.11;43.55
67740;BME280;54536;50.090;14.420;2023-03-25T15:26:42;98503.09;;;13.74;43.24
67740;BME280;54536;50.090;14.420;2023-03-25T15:37:42;98512.06;;;13.88;43.81